Time;durP1;ratioP1;P1;durP2;ratioP2;P2;SDS_P1;SDS_P2;PMS_P1;PMS_P2;Temp;Humidity;BMP_temperature;BMP_pressure;BME280_temperature;BME280_humidity;BME280_pressure;Samples;Min_cycle;Max_cycle;Signal;HPM_P1;HPM_P2
2021/09/06 00:00:39;;;;;;;5.35;3.35;;;;;;;;;;4450309;32;20276;-52
2021/09/06 00:03:05;;;;;;;4.82;3.17;;;;;;;;;;4450388;32;20220;-50
2021/09/06 00:05:31;;;;;;;4.90;3.00;;;;;;;;;;4450195;32;20204;-51
2021/09/06 00:07:56;;;;;;;10.27;3.20;;;;;;;;;;4450266;32;20332;-51
2021/09/06 00:10:39;;;;;;;3.50;2.08;;;;;;;;;;4450156;32;20205;-52
2021/09/06 00:13:06;;;;;;;9.82;3.00;;;;;;;;;;4450279;32;20221;-51
2021/09/06 00:15:33;;;;;;;4.57;3.12;;;;;;;;;;4450082;32;20200;-52
2021/09/06 00:17:58;;;;;;;5.30;3.30;;;;;;;;;;4450050;32;20208;-51
2021/09/06 00:20:25;;;;;;;3.62;3.00;;;;;;;;;;4448513;32;20255;-51
2021/09/06 00:22:51;;;;;;;7.65;3.05;;;;;;;;;;4450426;32;20669;-51
2021/09/06 00:25:16;;;;;;;6.62;3.60;;;;;;;;;;4449930;32;20224;-52
2021/09/06 00:27:42;;;;;;;5.47;3.12;;;;;;;;;;4448509;32;20311;-54
2021/09/06 00:30:08;;;;;;;9.80;3.72;;;;;;;;;;4450108;32;20220;-52
2021/09/06 00:32:33;;;;;;;6.35;3.72;;;;;;;;;;4456171;32;20274;-52
2021/09/06 00:34:59;;;;;;;5.95;3.80;;;;;;;;;;4465715;32;20224;-52
2021/09/06 00:37:24;;;;;;;5.82;3.53;;;;;;;;;;4465628;32;20302;-52
2021/09/06 00:39:50;;;;;;;7.75;3.70;;;;;;;;;;4465360;32;20296;-52
2021/09/06 00:42:15;;;;;;;3.78;3.15;;;;;;;;;;4465137;32;20395;-52
2021/09/06 00:44:41;;;;;;;6.85;3.40;;;;;;;;;;4465316;32;20255;-52
2021/09/06 00:47:07;;;;;;;10.60;3.58;;;;;;;;;;4465505;32;20291;-53
2021/09/06 00:49:32;;;;;;;3.80;2.45;;;;;;;;;;4464848;32;20311;-51
2021/09/06 00:51:58;;;;;;;4.22;3.08;;;;;;;;;;4464724;32;20316;-54
2021/09/06 00:54:24;;;;;;;6.57;3.65;;;;;;;;;;4463027;32;20212;-52
2021/09/06 00:56:51;;;;;;;6.22;2.58;;;;;;;;;;4448322;32;20954;-52
2021/09/06 00:59:17;;;;;;;5.50;2.70;;;;;;;;;;4448255;32;20275;-51
2021/09/06 01:01:42;;;;;;;6.15;3.08;;;;;;;;;;4449344;32;20279;-51
2021/09/06 01:04:08;;;;;;;5.40;2.97;;;;;;;;;;4449808;32;20246;-50
2021/09/06 01:06:33;;;;;;;5.12;3.30;;;;;;;;;;4449475;32;20294;-52
2021/09/06 01:08:59;;;;;;;4.47;2.95;;;;;;;;;;4449256;32;20229;-51
2021/09/06 01:11:24;;;;;;;4.50;3.33;;;;;;;;;;4447688;32;20334;-50
2021/09/06 01:13:50;;;;;;;6.22;3.10;;;;;;;;;;4447917;32;20334;-52
2021/09/06 01:16:17;;;;;;;4.45;3.35;;;;;;;;;;4447967;32;20617;-52
2021/09/06 01:18:42;;;;;;;4.70;3.15;;;;;;;;;;4449430;32;20232;-52
2021/09/06 01:21:08;;;;;;;3.92;2.62;;;;;;;;;;4449626;32;20301;-53
2021/09/06 01:23:33;;;;;;;4.15;2.60;;;;;;;;;;4448880;32;20246;-50
2021/09/06 01:25:59;;;;;;;4.60;2.78;;;;;;;;;;4449008;32;20318;-51
2021/09/06 01:28:24;;;;;;;3.85;2.22;;;;;;;;;;4448709;32;20530;-51
2021/09/06 01:30:50;;;;;;;3.62;2.72;;;;;;;;;;4449316;32;20279;-51
2021/09/06 01:33:15;;;;;;;5.53;3.00;;;;;;;;;;4458085;32;20236;-51
2021/09/06 01:35:41;;;;;;;4.37;3.70;;;;;;;;;;4464232;32;20343;-51
2021/09/06 01:38:06;;;;;;;5.10;3.17;;;;;;;;;;4464461;32;20298;-50
2021/09/06 01:40:32;;;;;;;4.37;2.87;;;;;;;;;;4464121;32;20196;-51
2021/09/06 01:42:57;;;;;;;7.40;2.67;;;;;;;;;;4464237;32;20623;-50
2021/09/06 01:45:23;;;;;;;6.15;2.47;;;;;;;;;;4464242;32;20223;-51
2021/09/06 01:47:48;;;;;;;5.95;3.33;;;;;;;;;;4464346;32;20287;-53
2021/09/06 01:50:14;;;;;;;5.03;2.97;;;;;;;;;;4464109;32;20294;-52
2021/09/06 01:52:39;;;;;;;6.40;3.60;;;;;;;;;;4449778;32;20315;-52
2021/09/06 01:55:06;;;;;;;6.43;3.12;;;;;;;;;;4448500;32;20321;-51
2021/09/06 01:57:31;;;;;;;6.15;2.92;;;;;;;;;;4448327;32;20696;-51
2021/09/06 01:59:57;;;;;;;4.40;2.97;;;;;;;;;;4448458;32;20228;-51
2021/09/06 02:02:23;;;;;;;3.67;2.87;;;;;;;;;;4448662;32;20224;-51
2021/09/06 02:04:49;;;;;;;4.93;2.95;;;;;;;;;;4447118;32;20264;-51
2021/09/06 02:07:15;;;;;;;5.50;3.75;;;;;;;;;;4448303;32;20205;-51
2021/09/06 02:09:40;;;;;;;7.72;2.62;;;;;;;;;;4447279;32;20595;-51
2021/09/06 02:12:07;;;;;;;11.15;3.92;;;;;;;;;;4448206;32;20268;-50
2021/09/06 02:14:32;;;;;;;4.65;3.05;;;;;;;;;;4448114;32;20266;-51
2021/09/06 02:16:58;;;;;;;5.45;3.35;;;;;;;;;;4448851;32;20284;-51
2021/09/06 02:19:24;;;;;;;7.40;3.58;;;;;;;;;;4448182;32;20229;-51
2021/09/06 02:21:49;;;;;;;5.10;2.67;;;;;;;;;;4448297;32;20375;-53
2021/09/06 02:24:16;;;;;;;4.50;3.33;;;;;;;;;;4448053;32;20396;-51
2021/09/06 02:26:41;;;;;;;3.67;3.08;;;;;;;;;;4447896;32;20316;-53
2021/09/06 02:29:07;;;;;;;3.97;3.17;;;;;;;;;;4448105;32;20217;-52
2021/09/06 02:31:32;;;;;;;6.37;3.42;;;;;;;;;;4448305;32;20275;-51
2021/09/06 02:33:58;;;;;;;4.35;3.03;;;;;;;;;;4463375;32;20220;-51
2021/09/06 02:36:23;;;;;;;5.72;3.05;;;;;;;;;;4463369;32;20350;-51
2021/09/06 02:38:49;;;;;;;4.72;3.20;;;;;;;;;;4463674;32;20232;-51
2021/09/06 02:41:14;;;;;;;5.22;3.28;;;;;;;;;;4463686;32;20301;-51
2021/09/06 02:43:41;;;;;;;4.10;2.92;;;;;;;;;;4463162;32;20344;-50
2021/09/06 02:46:06;;;;;;;4.82;3.22;;;;;;;;;;4463809;32;20624;-51
2021/09/06 02:48:32;;;;;;;3.03;2.75;;;;;;;;;;4452033;32;20303;-50
2021/09/06 02:50:57;;;;;;;8.50;3.22;;;;;;;;;;4450606;32;20309;-52
2021/09/06 02:53:23;;;;;;;8.00;3.70;;;;;;;;;;4463680;32;20510;-50
2021/09/06 02:55:48;;;;;;;4.45;3.10;;;;;;;;;;4463722;32;20322;-51
2021/09/06 02:58:14;;;;;;;4.55;3.40;;;;;;;;;;4463478;32;20224;-51
2021/09/06 03:00:40;;;;;;;5.03;3.05;;;;;;;;;;4463925;32;20303;-51
2021/09/06 03:03:05;;;;;;;8.00;3.80;;;;;;;;;;4463344;32;20305;-51
2021/09/06 03:05:31;;;;;;;6.82;4.07;;;;;;;;;;4463365;32;20208;-51
2021/09/06 03:07:58;;;;;;;5.53;3.55;;;;;;;;;;4463806;32;20752;-51
2021/09/06 03:10:23;;;;;;;4.93;3.28;;;;;;;;;;4462196;32;20247;-51
2021/09/06 03:12:49;;;;;;;6.45;4.30;;;;;;;;;;4463264;32;20331;-51
2021/09/06 03:15:14;;;;;;;10.98;4.45;;;;;;;;;;4463367;32;20573;-51
2021/09/06 03:17:40;;;;;;;11.32;3.55;;;;;;;;;;4464240;32;20330;-51
2021/09/06 03:20:06;;;;;;;7.28;3.80;;;;;;;;;;4466612;32;20219;-51
2021/09/06 03:22:32;;;;;;;6.97;3.55;;;;;;;;;;4466312;32;20259;-52
2021/09/06 03:24:57;;;;;;;4.70;2.87;;;;;;;;;;4466533;32;20242;-51
2021/09/06 03:27:23;;;;;;;6.12;3.17;;;;;;;;;;4466268;32;20251;-51
2021/09/06 03:29:48;;;;;;;4.65;3.08;;;;;;;;;;4466175;32;20295;-51
2021/09/06 03:32:14;;;;;;;4.07;3.03;;;;;;;;;;4463334;32;20299;-52
2021/09/06 03:34:40;;;;;;;4.45;3.40;;;;;;;;;;4466053;32;20346;-51
2021/09/06 03:37:05;;;;;;;5.10;3.62;;;;;;;;;;4466366;32;20310;-54
2021/09/06 03:39:31;;;;;;;4.22;3.53;;;;;;;;;;4465926;32;20303;-52
2021/09/06 03:41:56;;;;;;;6.37;3.80;;;;;;;;;;4466200;32;20352;-52
2021/09/06 03:44:24;;;;;;;8.73;3.30;;;;;;;;;;4465420;32;20242;-52
2021/09/06 03:46:50;;;;;;;5.72;3.00;;;;;;;;;;4466137;32;20308;-53
2021/09/06 03:49:15;;;;;;;7.22;3.83;;;;;;;;;;4466253;32;20247;-52
2021/09/06 03:51:41;;;;;;;6.53;4.10;;;;;;;;;;4465841;32;20331;-52
2021/09/06 03:54:06;;;;;;;5.18;3.83;;;;;;;;;;4464871;32;20252;-51
2021/09/06 03:56:31;;;;;;;8.65;3.12;;;;;;;;;;4465544;32;20279;-51
2021/09/06 03:58:57;;;;;;;9.32;4.40;;;;;;;;;;4466085;32;20215;-52
2021/09/06 04:01:22;;;;;;;5.18;3.33;;;;;;;;;;4465685;32;20722;-52
2021/09/06 04:03:48;;;;;;;11.20;3.65;;;;;;;;;;4465652;32;20236;-52
2021/09/06 04:06:15;;;;;;;4.47;3.03;;;;;;;;;;4465751;32;20278;-53
2021/09/06 04:08:40;;;;;;;4.50;3.58;;;;;;;;;;4465960;32;20300;-51
2021/09/06 04:11:05;;;;;;;5.28;3.17;;;;;;;;;;4465482;32;20314;-51
2021/09/06 04:13:31;;;;;;;5.15;3.15;;;;;;;;;;4465646;32;20573;-51
2021/09/06 04:15:57;;;;;;;9.88;3.45;;;;;;;;;;4465984;32;20280;-52
2021/09/06 04:18:22;;;;;;;4.65;3.33;;;;;;;;;;4465325;32;20680;-51
2021/09/06 04:20:49;;;;;;;4.45;3.70;;;;;;;;;;4465523;32;20297;-51
2021/09/06 04:23:14;;;;;;;4.68;3.22;;;;;;;;;;4465568;32;20738;-52
2021/09/06 04:25:40;;;;;;;5.80;3.37;;;;;;;;;;4465619;32;20288;-53
2021/09/06 04:28:05;;;;;;;5.95;4.07;;;;;;;;;;4465479;32;20298;-51
2021/09/06 04:30:31;;;;;;;8.32;4.03;;;;;;;;;;4464712;32;20204;-52
2021/09/06 04:32:56;;;;;;;7.97;4.53;;;;;;;;;;4465310;32;20279;-51
2021/09/06 04:35:22;;;;;;;9.05;4.82;;;;;;;;;;4465165;32;20247;-51
2021/09/06 04:37:47;;;;;;;9.75;4.90;;;;;;;;;;4464330;32;20321;-51
2021/09/06 04:40:13;;;;;;;6.20;4.22;;;;;;;;;;4458758;32;20307;-50
2021/09/06 04:42:38;;;;;;;5.50;4.28;;;;;;;;;;4449691;32;20352;-51
2021/09/06 04:45:04;;;;;;;8.02;4.00;;;;;;;;;;4449624;32;20547;-51
2021/09/06 04:47:30;;;;;;;7.50;4.78;;;;;;;;;;4449534;32;20651;-51
2021/09/06 04:49:55;;;;;;;10.13;4.40;;;;;;;;;;4449832;32;20288;-51
2021/09/06 04:52:21;;;;;;;10.25;3.97;;;;;;;;;;4448900;32;20267;-52
2021/09/06 04:54:46;;;;;;;6.82;4.20;;;;;;;;;;4449728;32;20245;-51
2021/09/06 04:57:12;;;;;;;10.25;4.30;;;;;;;;;;4449247;32;20339;-51
2021/09/06 04:59:37;;;;;;;9.02;4.37;;;;;;;;;;4449515;32;20228;-51
2021/09/06 05:02:03;;;;;;;7.00;4.10;;;;;;;;;;4449288;32;20262;-50
2021/09/06 05:04:28;;;;;;;10.38;5.07;;;;;;;;;;4449357;32;20216;-50
2021/09/06 05:06:54;;;;;;;5.70;3.40;;;;;;;;;;4449364;32;20716;-51
2021/09/06 05:09:20;;;;;;;8.13;4.28;;;;;;;;;;4449460;32;20321;-52
2021/09/06 05:11:46;;;;;;;7.53;4.35;;;;;;;;;;4449413;32;20283;-53
2021/09/06 05:14:11;;;;;;;10.35;3.90;;;;;;;;;;4449412;32;20256;-50
2021/09/06 05:16:37;;;;;;;5.40;3.47;;;;;;;;;;4449522;32;20714;-53
2021/09/06 05:19:02;;;;;;;7.37;4.00;;;;;;;;;;4449655;32;20634;-51
2021/09/06 05:21:28;;;;;;;9.82;5.07;;;;;;;;;;4449248;32;20273;-51
2021/09/06 05:23:53;;;;;;;6.57;4.75;;;;;;;;;;4447178;32;20293;-51
2021/09/06 05:26:19;;;;;;;12.75;6.78;;;;;;;;;;4447981;32;20794;-51
2021/09/06 05:28:44;;;;;;;9.05;6.57;;;;;;;;;;4448899;32;20252;-51
2021/09/06 05:31:10;;;;;;;9.65;6.00;;;;;;;;;;4449226;32;20292;-51
2021/09/06 05:33:36;;;;;;;8.80;4.57;;;;;;;;;;4461417;32;20343;-51
2021/09/06 05:36:01;;;;;;;5.57;3.78;;;;;;;;;;4464766;32;20628;-51
2021/09/06 05:38:27;;;;;;;13.80;4.32;;;;;;;;;;4464767;32;20232;-52
2021/09/06 05:40:52;;;;;;;5.25;4.10;;;;;;;;;;4460943;32;20309;-52
2021/09/06 05:43:18;;;;;;;5.28;4.40;;;;;;;;;;4449093;32;20266;-51
2021/09/06 05:45:43;;;;;;;4.97;4.05;;;;;;;;;;4448952;32;20275;-52
2021/09/06 05:48:09;;;;;;;5.95;3.85;;;;;;;;;;4448812;32;20750;-52
2021/09/06 05:50:34;;;;;;;6.43;3.62;;;;;;;;;;4448429;32;20325;-51
2021/09/06 05:53:00;;;;;;;5.85;3.67;;;;;;;;;;4449351;32;20296;-51
2021/09/06 05:55:26;;;;;;;7.03;3.25;;;;;;;;;;4448600;32;20208;-51
2021/09/06 05:57:52;;;;;;;6.80;4.37;;;;;;;;;;4448178;32;20782;-50
2021/09/06 06:00:18;;;;;;;5.47;4.15;;;;;;;;;;4448659;32;20238;-51
2021/09/06 06:02:45;;;;;;;7.85;4.65;;;;;;;;;;4448538;32;20217;-50
2021/09/06 06:05:11;;;;;;;7.35;4.18;;;;;;;;;;4448613;32;20687;-52
2021/09/06 06:07:36;;;;;;;11.30;5.15;;;;;;;;;;4449061;32;20280;-52
2021/09/06 06:10:02;;;;;;;7.30;3.65;;;;;;;;;;4448352;32;20622;-52
2021/09/06 06:12:30;;;;;;;8.80;4.50;;;;;;;;;;4448021;32;20303;-52
2021/09/06 06:14:56;;;;;;;8.63;4.87;;;;;;;;;;4448435;32;20602;-52
2021/09/06 06:17:23;;;;;;;6.45;4.75;;;;;;;;;;4447267;32;20263;-52
2021/09/06 06:19:48;;;;;;;10.68;5.28;;;;;;;;;;4447073;32;20697;-52
2021/09/06 06:22:13;;;;;;;9.00;4.50;;;;;;;;;;4448631;32;20298;-51
2021/09/06 06:24:39;;;;;;;6.97;4.57;;;;;;;;;;4448052;32;20225;-52
2021/09/06 06:27:04;;;;;;;5.60;3.97;;;;;;;;;;4448457;32;20668;-52
2021/09/06 06:29:30;;;;;;;6.18;4.03;;;;;;;;;;4447252;32;20330;-51
2021/09/06 06:31:56;;;;;;;6.53;4.15;;;;;;;;;;4450267;32;20327;-51
2021/09/06 06:34:22;;;;;;;5.35;4.47;;;;;;;;;;4463708;32;20295;-52
2021/09/06 06:36:47;;;;;;;9.55;4.65;;;;;;;;;;4463925;32;20673;-51
2021/09/06 06:39:13;;;;;;;7.53;4.20;;;;;;;;;;4464046;32;20724;-52
2021/09/06 06:41:38;;;;;;;8.75;4.93;;;;;;;;;;4463339;32;20325;-52
2021/09/06 06:44:04;;;;;;;8.20;4.37;;;;;;;;;;4463911;32;20287;-50
2021/09/06 06:46:30;;;;;;;6.85;3.95;;;;;;;;;;4463955;32;20306;-51
2021/09/06 06:48:55;;;;;;;7.10;4.60;;;;;;;;;;4463962;32;20645;-51
2021/09/06 06:51:21;;;;;;;6.65;4.50;;;;;;;;;;4464109;32;20271;-50
2021/09/06 06:53:47;;;;;;;6.90;5.00;;;;;;;;;;4466247;32;20248;-52
2021/09/06 06:56:12;;;;;;;5.90;4.65;;;;;;;;;;4466958;32;20275;-52
2021/09/06 06:58:38;;;;;;;10.07;5.78;;;;;;;;;;4467014;32;20224;-52
2021/09/06 07:01:04;;;;;;;6.95;4.87;;;;;;;;;;4466986;32;20339;-51
2021/09/06 07:03:30;;;;;;;7.05;4.95;;;;;;;;;;4466778;32;20319;-50
2021/09/06 07:05:55;;;;;;;6.53;4.78;;;;;;;;;;4465706;32;20303;-53
2021/09/06 07:08:21;;;;;;;13.43;5.82;;;;;;;;;;4467034;32;20289;-51
2021/09/06 07:10:47;;;;;;;8.07;5.53;;;;;;;;;;4466334;32;20288;-51
2021/09/06 07:13:12;;;;;;;6.40;4.87;;;;;;;;;;4466546;32;20343;-52
2021/09/06 07:15:38;;;;;;;6.78;4.22;;;;;;;;;;4466706;32;20275;-52
2021/09/06 07:18:07;;;;;;;5.85;4.95;;;;;;;;;;4466585;32;20366;-50
2021/09/06 07:20:33;;;;;;;11.05;5.65;;;;;;;;;;4466428;32;20635;-51
2021/09/06 07:22:58;;;;;;;7.37;5.05;;;;;;;;;;4466372;32;20297;-51
2021/09/06 07:25:24;;;;;;;8.93;4.72;;;;;;;;;;4466095;32;20612;-52
2021/09/06 07:27:49;;;;;;;7.00;4.80;;;;;;;;;;4466613;32;20276;-53
2021/09/06 07:30:15;;;;;;;13.77;5.30;;;;;;;;;;4466122;32;20265;-51
2021/09/06 07:32:40;;;;;;;10.27;5.70;;;;;;;;;;4458908;32;20279;-51
2021/09/06 07:35:06;;;;;;;10.10;5.15;;;;;;;;;;4451100;32;20641;-52
2021/09/06 07:37:32;;;;;;;7.00;4.45;;;;;;;;;;4450726;32;20303;-51
2021/09/06 07:39:57;;;;;;;6.37;5.03;;;;;;;;;;4450939;32;20357;-52
2021/09/06 07:42:24;;;;;;;12.15;5.28;;;;;;;;;;4450873;32;20271;-51
2021/09/06 07:44:50;;;;;;;7.68;4.65;;;;;;;;;;4450408;32;20286;-51
2021/09/06 07:47:15;;;;;;;7.47;4.55;;;;;;;;;;4450457;32;20411;-52
2021/09/06 07:49:42;;;;;;;7.05;4.75;;;;;;;;;;4450154;32;20561;-51
2021/09/06 07:52:08;;;;;;;7.62;5.22;;;;;;;;;;4449387;32;20644;-52
2021/09/06 07:54:34;;;;;;;8.75;5.00;;;;;;;;;;4450386;32;20300;-52
2021/09/06 07:56:59;;;;;;;6.47;4.35;;;;;;;;;;4450405;32;20280;-51
2021/09/06 07:59:24;;;;;;;6.90;4.60;;;;;;;;;;4450506;32;20224;-51
2021/09/06 08:01:50;;;;;;;6.15;5.00;;;;;;;;;;4450172;32;20666;-51
2021/09/06 08:04:15;;;;;;;9.48;4.78;;;;;;;;;;4450071;32;20216;-51
2021/09/06 08:06:41;;;;;;;7.03;4.53;;;;;;;;;;4450159;32;20287;-53
2021/09/06 08:09:07;;;;;;;8.82;7.50;;;;;;;;;;4450199;32;20251;-52
2021/09/06 08:11:34;;;;;;;8.73;5.95;;;;;;;;;;4450291;32;20309;-51
2021/09/06 08:14:00;;;;;;;7.43;4.87;;;;;;;;;;4450106;32;20228;-52
2021/09/06 08:16:26;;;;;;;5.97;4.18;;;;;;;;;;4450026;32;20328;-53
2021/09/06 08:18:52;;;;;;;6.00;3.62;;;;;;;;;;4449841;32;20409;-51
2021/09/06 08:21:18;;;;;;;5.30;3.85;;;;;;;;;;4450290;32;20691;-53
2021/09/06 08:23:43;;;;;;;10.98;4.40;;;;;;;;;;4448469;32;20272;-51
2021/09/06 08:26:09;;;;;;;8.68;3.72;;;;;;;;;;4449423;32;20279;-53
2021/09/06 08:28:34;;;;;;;6.82;4.45;;;;;;;;;;4449518;32;20244;-51
2021/09/06 08:31:00;;;;;;;8.73;4.32;;;;;;;;;;4448608;32;20469;-50
2021/09/06 08:33:26;;;;;;;10.70;5.35;;;;;;;;;;4460950;32;20216;-51
2021/09/06 08:35:52;;;;;;;6.53;4.00;;;;;;;;;;4465255;32;20387;-52
2021/09/06 08:38:20;;;;;;;8.25;4.95;;;;;;;;;;4465352;32;20212;-51
2021/09/06 08:40:46;;;;;;;5.10;4.10;;;;;;;;;;4465302;32;20219;-51
2021/09/06 08:43:12;;;;;;;5.85;4.35;;;;;;;;;;4465701;32;20510;-51
2021/09/06 08:45:38;;;;;;;7.40;4.65;;;;;;;;;;4465447;32;20345;-52
2021/09/06 08:48:04;;;;;;;6.87;5.05;;;;;;;;;;4465346;32;20287;-51
2021/09/06 08:50:30;;;;;;;6.93;4.85;;;;;;;;;;4464809;32;20219;-52
2021/09/06 08:52:56;;;;;;;8.73;4.10;;;;;;;;;;4463863;32;20330;-52
2021/09/06 08:55:22;;;;;;;8.55;4.95;;;;;;;;;;4463548;32;20551;-52
2021/09/06 08:57:47;;;;;;;7.62;4.22;;;;;;;;;;4464779;32;20283;-53
2021/09/06 09:00:13;;;;;;;6.72;4.20;;;;;;;;;;4464851;32;20761;-52
2021/09/06 09:02:42;;;;;;;5.85;4.28;;;;;;;;;;4465067;32;20216;-51
2021/09/06 09:05:10;;;;;;;10.02;4.90;;;;;;;;;;4464996;32;20232;-51
2021/09/06 09:07:39;;;;;;;6.60;4.30;;;;;;;;;;4465398;32;20266;-51
2021/09/06 09:10:07;;;;;;;5.55;3.95;;;;;;;;;;4464888;32;20239;-51
2021/09/06 09:12:33;;;;;;;6.03;3.87;;;;;;;;;;4465110;32;20204;-51
2021/09/06 09:15:00;;;;;;;6.93;4.18;;;;;;;;;;4464029;32;20207;-52
2021/09/06 09:17:26;;;;;;;7.03;3.95;;;;;;;;;;4464404;32;20431;-52
2021/09/06 09:19:53;;;;;;;4.15;3.08;;;;;;;;;;4463473;32;20280;-52
2021/09/06 09:22:28;;;;;;;6.25;4.35;;;;;;;;;;4452429;32;20665;-52
2021/09/06 09:25:00;;;;;;;4.60;3.17;;;;;;;;;;4448684;32;20345;-53
2021/09/06 09:27:35;;;;;;;5.93;4.28;;;;;;;;;;4449148;32;20612;-52
2021/09/06 09:30:03;;;;;;;9.63;4.32;;;;;;;;;;4449190;32;20359;-52
2021/09/06 09:32:33;;;;;;;5.62;4.10;;;;;;;;;;4448673;32;20718;-52
2021/09/06 09:35:06;;;;;;;8.55;5.05;;;;;;;;;;4448929;32;20270;-52
2021/09/06 09:37:32;;;;;;;5.28;3.83;;;;;;;;;;4448730;32;20197;-52
2021/09/06 09:40:04;;;;;;;6.57;3.97;;;;;;;;;;4448865;32;20278;-52
2021/09/06 09:42:29;;;;;;;6.37;4.68;;;;;;;;;;4448974;32;20637;-52
2021/09/06 09:44:58;;;;;;;6.50;3.83;;;;;;;;;;4448644;32;20217;-52
2021/09/06 09:47:26;;;;;;;4.65;3.28;;;;;;;;;;4448946;32;20661;-52
2021/09/06 09:49:53;;;;;;;5.93;3.80;;;;;;;;;;4448578;32;20239;-52
2021/09/06 09:52:20;;;;;;;6.50;3.55;;;;;;;;;;4448834;32;20227;-52
2021/09/06 09:54:48;;;;;;;6.07;3.53;;;;;;;;;;4448645;32;20228;-51
2021/09/06 09:57:13;;;;;;;4.35;3.65;;;;;;;;;;4448770;32;20285;-51
2021/09/06 09:59:40;;;;;;;5.95;4.12;;;;;;;;;;4448636;32;20591;-52
2021/09/06 10:02:08;;;;;;;11.50;3.33;;;;;;;;;;4448631;32;20354;-52
2021/09/06 10:04:39;;;;;;;5.90;3.50;;;;;;;;;;4448209;32;20327;-52
2021/09/06 10:07:05;;;;;;;3.65;2.72;;;;;;;;;;4448549;32;20212;-51
2021/09/06 10:09:41;;;;;;;9.15;3.47;;;;;;;;;;4447928;32;20701;-52
2021/09/06 10:12:07;;;;;;;3.92;3.05;;;;;;;;;;4448249;32;20281;-52
2021/09/06 10:14:33;;;;;;;4.93;3.50;;;;;;;;;;4448148;32;20314;-52
2021/09/06 10:17:08;;;;;;;5.10;3.47;;;;;;;;;;4448118;32;20395;-53
2021/09/06 10:19:39;;;;;;;5.68;3.72;;;;;;;;;;4448219;32;20330;-53
2021/09/06 10:22:05;;;;;;;5.72;3.80;;;;;;;;;;4448328;32;20308;-52
2021/09/06 10:24:30;;;;;;;5.35;3.70;;;;;;;;;;4447365;32;20731;-52
2021/09/06 10:27:06;;;;;;;8.48;4.50;;;;;;;;;;4447933;32;20264;-52
2021/09/06 10:29:32;;;;;;;5.62;4.03;;;;;;;;;;4447717;32;20254;-52
2021/09/06 10:32:03;;;;;;;4.90;3.42;;;;;;;;;;4450223;32;20314;-52
2021/09/06 10:34:29;;;;;;;8.23;3.85;;;;;;;;;;4463546;32;20323;-52
2021/09/06 10:37:03;;;;;;;6.05;3.08;;;;;;;;;;4463481;32;20712;-54
2021/09/06 10:39:30;;;;;;;5.70;3.12;;;;;;;;;;4463417;32;20216;-52
2021/09/06 10:42:03;;;;;;;4.87;3.25;;;;;;;;;;4463605;32;20691;-52
2021/09/06 10:44:35;;;;;;;4.62;2.97;;;;;;;;;;4463727;32;20624;-50
2021/09/06 10:47:07;;;;;;;6.22;3.50;;;;;;;;;;4462557;32;20640;-51
2021/09/06 10:49:32;;;;;;;6.28;3.17;;;;;;;;;;4463434;32;20231;-51
2021/09/06 10:51:59;;;;;;;4.22;2.75;;;;;;;;;;4463649;32;20275;-52
2021/09/06 10:54:25;;;;;;;5.12;3.08;;;;;;;;;;4463140;32;20236;-51
2021/09/06 10:56:51;;;;;;;4.85;2.83;;;;;;;;;;4463737;32;20301;-52
2021/09/06 10:59:23;;;;;;;5.37;3.42;;;;;;;;;;4463628;32;20667;-51
2021/09/06 11:01:55;;;;;;;3.78;2.37;;;;;;;;;;4463592;32;20218;-52
2021/09/06 11:04:27;;;;;;;5.15;3.40;;;;;;;;;;4463631;32;20768;-51
2021/09/06 11:07:04;;;;;;;4.53;2.85;;;;;;;;;;4463580;32;20342;-51
2021/09/06 11:09:31;;;;;;;5.40;3.30;;;;;;;;;;4463257;32;20243;-52
2021/09/06 11:12:08;;;;;;;5.80;2.53;;;;;;;;;;4462327;32;20255;-51
2021/09/06 11:14:46;;;;;;;5.68;2.72;;;;;;;;;;4452215;32;20236;-52
2021/09/06 11:17:14;;;;;;;3.95;2.58;;;;;;;;;;4448534;32;20322;-54
2021/09/06 11:19:40;;;;;;;5.00;2.70;;;;;;;;;;4447787;32;20676;-52
2021/09/06 11:22:06;;;;;;;6.85;2.62;;;;;;;;;;4447956;32;20371;-51
2021/09/06 11:24:32;;;;;;;4.30;2.80;;;;;;;;;;4447467;32;20233;-51
2021/09/06 11:26:57;;;;;;;4.00;2.50;;;;;;;;;;4446563;32;20346;-53
2021/09/06 11:29:23;;;;;;;3.92;2.42;;;;;;;;;;4447440;32;20620;-52
2021/09/06 11:31:50;;;;;;;6.28;2.80;;;;;;;;;;4446608;32;20616;-54
2021/09/06 11:34:21;;;;;;;3.22;2.42;;;;;;;;;;4463240;32;20228;-52
2021/09/06 11:36:47;;;;;;;5.12;2.87;;;;;;;;;;4463817;32;20220;-51
2021/09/06 11:39:12;;;;;;;4.37;3.03;;;;;;;;;;4464942;32;20257;-52
2021/09/06 11:41:39;;;;;;;4.07;3.33;;;;;;;;;;4466214;32;20301;-52
2021/09/06 11:44:10;;;;;;;7.37;4.28;;;;;;;;;;4466276;32;20652;-51
2021/09/06 11:46:40;;;;;;;5.22;3.85;;;;;;;;;;4465848;32;20236;-51
2021/09/06 11:49:06;;;;;;;8.38;4.43;;;;;;;;;;4465947;32;20574;-53
2021/09/06 11:51:31;;;;;;;5.57;3.60;;;;;;;;;;4465764;32;20357;-54
2021/09/06 11:54:00;;;;;;;8.45;4.10;;;;;;;;;;4464352;32;20530;-51
2021/09/06 11:56:26;;;;;;;3.97;3.22;;;;;;;;;;4465767;32;20517;-51
2021/09/06 11:58:54;;;;;;;7.12;3.92;;;;;;;;;;4465648;32;20640;-52
2021/09/06 12:01:23;;;;;;;6.35;4.07;;;;;;;;;;4466049;32;20235;-52
2021/09/06 12:03:48;;;;;;;8.82;3.83;;;;;;;;;;4465681;32;20555;-51
2021/09/06 12:06:18;;;;;;;11.48;4.30;;;;;;;;;;4466070;32;20320;-51
2021/09/06 12:08:56;;;;;;;7.25;4.18;;;;;;;;;;4465401;32;20307;-52
2021/09/06 12:11:22;;;;;;;7.03;4.28;;;;;;;;;;4451462;32;20243;-51
2021/09/06 12:13:57;;;;;;;7.25;3.67;;;;;;;;;;4449743;32;20228;-51
2021/09/06 12:16:27;;;;;;;6.57;3.75;;;;;;;;;;4450414;32;20568;-52
2021/09/06 12:18:53;;;;;;;12.85;4.30;;;;;;;;;;4449801;32;20273;-52
2021/09/06 12:21:18;;;;;;;6.60;3.67;;;;;;;;;;4449668;32;20279;-52
2021/09/06 12:23:47;;;;;;;7.78;5.60;;;;;;;;;;4449566;32;20252;-52
2021/09/06 12:26:14;;;;;;;11.27;5.40;;;;;;;;;;4449800;32;20238;-52
2021/09/06 12:28:51;;;;;;;4.25;3.55;;;;;;;;;;4449785;32;20243;-52
2021/09/06 12:31:18;;;;;;;7.40;4.12;;;;;;;;;;4450054;32;20256;-52
2021/09/06 12:33:46;;;;;;;7.53;4.45;;;;;;;;;;4462590;32;20546;-52
2021/09/06 12:36:12;;;;;;;10.32;4.57;;;;;;;;;;4465486;32;20208;-52
2021/09/06 12:38:37;;;;;;;5.57;3.72;;;;;;;;;;4465062;32;20621;-51
2021/09/06 12:41:03;;;;;;;11.10;3.70;;;;;;;;;;4465542;32;20297;-53
2021/09/06 12:43:28;;;;;;;6.43;4.32;;;;;;;;;;4465280;32;20216;-51
2021/09/06 12:45:54;;;;;;;7.15;3.22;;;;;;;;;;4465486;32;20287;-52
2021/09/06 12:48:20;;;;;;;4.40;3.30;;;;;;;;;;4465234;32;20235;-51
2021/09/06 12:50:46;;;;;;;4.68;3.53;;;;;;;;;;4464497;32;20275;-51
2021/09/06 12:53:12;;;;;;;4.87;3.58;;;;;;;;;;4464953;32;20486;-51
2021/09/06 12:55:37;;;;;;;5.80;3.50;;;;;;;;;;4464850;32;20279;-54
2021/09/06 12:58:03;;;;;;;9.45;4.05;;;;;;;;;;4465035;32;20271;-52
2021/09/06 13:00:30;;;;;;;8.35;4.22;;;;;;;;;;4464679;32;20292;-52
2021/09/06 13:02:56;;;;;;;7.15;3.90;;;;;;;;;;4464600;32;20215;-51
2021/09/06 13:05:22;;;;;;;6.00;4.35;;;;;;;;;;4465038;32;20403;-51
2021/09/06 13:07:48;;;;;;;7.15;3.87;;;;;;;;;;4448832;32;20283;-52
2021/09/06 13:10:14;;;;;;;7.07;3.33;;;;;;;;;;4449020;32;20721;-51
2021/09/06 13:12:40;;;;;;;4.05;3.00;;;;;;;;;;4449128;32;20309;-52
2021/09/06 13:15:07;;;;;;;5.18;3.50;;;;;;;;;;4449372;32;20284;-51
2021/09/06 13:17:33;;;;;;;3.65;2.87;;;;;;;;;;4448900;32;20408;-52
2021/09/06 13:19:58;;;;;;;4.32;2.80;;;;;;;;;;4449224;32;20668;-52
2021/09/06 13:22:24;;;;;;;3.85;3.30;;;;;;;;;;4448986;32;20629;-52
2021/09/06 13:24:50;;;;;;;7.80;3.78;;;;;;;;;;4448841;32;20316;-52
2021/09/06 13:27:17;;;;;;;5.12;3.20;;;;;;;;;;4448925;32;20216;-53
2021/09/06 13:29:42;;;;;;;3.45;2.47;;;;;;;;;;4448730;32;20256;-52
2021/09/06 13:32:08;;;;;;;4.68;3.33;;;;;;;;;;4452107;32;20374;-53
2021/09/06 13:34:34;;;;;;;7.82;3.72;;;;;;;;;;4464502;32;20295;-54
2021/09/06 13:36:59;;;;;;;3.87;2.90;;;;;;;;;;4464939;32;20651;-53
2021/09/06 13:39:25;;;;;;;5.60;2.90;;;;;;;;;;4464450;32;20228;-52
2021/09/06 13:41:50;;;;;;;6.18;3.37;;;;;;;;;;4464771;32;20272;-52
2021/09/06 13:44:16;;;;;;;4.95;2.85;;;;;;;;;;4464623;32;20247;-52
2021/09/06 13:46:41;;;;;;;5.15;3.03;;;;;;;;;;4465041;32;20652;-52
2021/09/06 13:49:07;;;;;;;6.82;3.80;;;;;;;;;;4464438;32;20250;-52
2021/09/06 13:51:32;;;;;;;5.82;2.75;;;;;;;;;;4464304;32;20680;-53
2021/09/06 13:53:58;;;;;;;4.03;2.53;;;;;;;;;;4464190;32;20239;-52
2021/09/06 13:56:23;;;;;;;6.95;3.45;;;;;;;;;;4464576;32;20727;-53
2021/09/06 13:58:49;;;;;;;5.10;3.45;;;;;;;;;;4464201;32;20290;-51
2021/09/06 14:01:14;;;;;;;11.02;4.50;;;;;;;;;;4464183;32;20276;-52
2021/09/06 14:03:40;;;;;;;5.57;3.78;;;;;;;;;;4450904;32;20584;-52
2021/09/06 14:06:06;;;;;;;6.57;3.67;;;;;;;;;;4448695;32;20371;-53
2021/09/06 14:08:31;;;;;;;4.75;3.28;;;;;;;;;;4448212;32;20225;-52
2021/09/06 14:10:57;;;;;;;3.37;3.05;;;;;;;;;;4452814;32;20688;-52
2021/09/06 14:13:22;;;;;;;5.82;3.37;;;;;;;;;;4462931;32;20258;-52
2021/09/06 14:15:48;;;;;;;6.53;3.45;;;;;;;;;;4463502;32;20305;-52
2021/09/06 14:18:14;;;;;;;5.75;3.30;;;;;;;;;;4463900;32;20231;-52
2021/09/06 14:20:40;;;;;;;5.72;3.60;;;;;;;;;;4463765;32;20289;-52
2021/09/06 14:23:10;;;;;;;5.50;3.05;;;;;;;;;;4464046;32;20272;-52
2021/09/06 14:25:36;;;;;;;4.37;2.80;;;;;;;;;;4463997;32;20219;-52
2021/09/06 14:28:02;;;;;;;4.18;2.72;;;;;;;;;;4463621;32;20334;-52
2021/09/06 14:30:28;;;;;;;8.02;4.25;;;;;;;;;;4463998;32;20684;-52
2021/09/06 14:32:54;;;;;;;5.43;4.12;;;;;;;;;;4457109;32;20318;-53
2021/09/06 14:35:19;;;;;;;4.72;3.10;;;;;;;;;;4464152;32;20579;-52